createdAt,value
2022-11-05T00:00:02.478Z,61.20
2022-11-05T00:03:09.606Z,61.33
2022-11-05T00:05:54.967Z,61.30
2022-11-05T00:08:40.200Z,61.58
2022-11-05T00:11:06.625Z,61.43
2022-11-05T00:13:51.813Z,61.54
2022-11-05T00:16:37.122Z,61.34
2022-11-05T00:19:06.273Z,61.58
2022-11-05T00:21:52.596Z,61.61
2022-11-05T00:24:37.783Z,61.77
2022-11-05T00:27:04.424Z,61.54
2022-11-05T00:29:30.898Z,61.62
2022-11-05T00:31:57.490Z,61.66
2022-11-05T00:34:24.022Z,61.52
2022-11-05T00:36:50.512Z,61.44
2022-11-05T00:39:17.197Z,61.47
2022-11-05T00:41:43.551Z,61.63
2022-11-05T00:44:28.901Z,61.67
2022-11-05T00:47:15.504Z,61.57
2022-11-05T00:49:42.555Z,61.83
2022-11-05T00:52:28.038Z,61.76
2022-11-05T00:54:54.669Z,61.38
2022-11-05T00:57:21.119Z,61.42
2022-11-05T00:59:47.556Z,61.65
2022-11-05T01:02:14.134Z,61.99
2022-11-05T01:04:40.648Z,61.90
2022-11-05T01:07:07.082Z,62.11
2022-11-05T01:09:33.686Z,62.07
2022-11-05T01:12:00.153Z,62.36
2022-11-05T01:14:26.914Z,62.47
2022-11-05T01:16:53.375Z,62.79
2022-11-05T01:19:19.838Z,62.96
2022-11-05T01:21:46.540Z,62.81
2022-11-05T01:24:12.883Z,62.77
2022-11-05T01:26:39.326Z,63.00
2022-11-05T01:29:05.858Z,63.26
2022-11-05T01:31:32.291Z,63.21
2022-11-05T01:34:00.098Z,63.09
2022-11-05T01:36:26.533Z,62.87
2022-11-05T01:38:53.115Z,62.85
2022-11-05T01:41:19.541Z,62.72
2022-11-05T01:43:56.876Z,62.72
2022-11-05T01:46:26.127Z,62.53
2022-11-05T01:48:52.588Z,62.39
2022-11-05T01:51:22.008Z,62.48
2022-11-05T01:53:52.544Z,62.48
2022-11-05T01:56:43.290Z,62.68
2022-11-05T01:59:20.574Z,62.72
2022-11-05T02:01:47.089Z,62.86
2022-11-05T02:04:17.226Z,63.13
2022-11-05T02:06:45.884Z,62.97
2022-11-05T02:09:20.550Z,62.88
2022-11-05T02:11:47.100Z,62.91
2022-11-05T02:14:13.553Z,62.89
2022-11-05T02:17:01.880Z,62.80
2022-11-05T02:20:03.935Z,62.95
2022-11-05T02:23:01.677Z,62.92
2022-11-05T02:25:50.123Z,62.89
2022-11-05T02:28:46.559Z,62.85
2022-11-05T02:31:24.341Z,62.84
2022-11-05T02:34:05.897Z,62.62
2022-11-05T02:37:06.854Z,62.60
2022-11-05T02:40:00.099Z,62.53
2022-11-05T02:42:55.475Z,62.50
2022-11-05T02:45:52.644Z,62.16
2022-11-05T02:48:28.865Z,61.98
2022-11-05T02:51:01.371Z,61.97
2022-11-05T02:53:37.727Z,61.98
2022-11-05T02:56:13.716Z,61.88
2022-11-05T02:58:40.819Z,61.76
2022-11-05T03:01:10.514Z,61.78
2022-11-05T03:03:46.537Z,61.70
2022-11-05T03:06:29.850Z,61.81
2022-11-05T03:09:27.316Z,61.91
2022-11-05T03:12:13.477Z,61.76
2022-11-05T03:14:45.174Z,61.68
2022-11-05T03:17:17.647Z,61.67
2022-11-05T03:20:01.472Z,61.90
2022-11-05T03:22:33.381Z,61.87
2022-11-05T03:25:07.985Z,61.92
2022-11-05T03:27:36.839Z,62.04
2022-11-05T03:30:08.588Z,62.10
2022-11-05T03:32:39.351Z,62.06
2022-11-05T03:35:18.100Z,62.16
2022-11-05T03:37:44.763Z,61.99
2022-11-05T03:40:11.700Z,61.63
2022-11-05T03:42:40.720Z,61.63
2022-11-05T03:45:21.153Z,61.72
2022-11-05T03:47:47.586Z,61.55
2022-11-05T03:50:20.368Z,61.33
2022-11-05T03:53:13.891Z,61.50
2022-11-05T03:55:59.293Z,61.61
2022-11-05T03:58:26.048Z,61.35
2022-11-05T04:00:52.589Z,61.81
2022-11-05T04:03:19.118Z,61.48
2022-11-05T04:06:05.567Z,61.63
2022-11-05T04:08:58.367Z,61.78
2022-11-05T04:11:43.487Z,61.93
2022-11-05T04:14:10.179Z,61.86
2022-11-05T04:16:55.235Z,61.54
2022-11-05T04:19:39.987Z,61.36
2022-11-05T04:22:25.076Z,61.50
2022-11-05T04:24:51.507Z,61.49
2022-11-05T04:27:17.940Z,61.49
2022-11-05T04:30:03.110Z,61.36
2022-11-05T04:32:29.543Z,61.58
2022-11-05T04:34:55.974Z,61.42
2022-11-05T04:37:22.512Z,61.49
2022-11-05T04:39:49.042Z,61.47
2022-11-05T04:42:15.871Z,61.45
2022-11-05T04:44:42.419Z,61.37
2022-11-05T04:47:08.887Z,61.27
2022-11-05T04:49:35.390Z,61.52
2022-11-05T04:52:01.922Z,61.81
2022-11-05T04:54:28.455Z,61.84
2022-11-05T04:56:54.888Z,61.55
2022-11-05T04:59:21.339Z,61.69
2022-11-05T05:01:52.536Z,61.80
2022-11-05T05:04:20.124Z,62.05
2022-11-05T05:06:46.660Z,62.17
2022-11-05T05:09:13.195Z,62.38
2022-11-05T05:11:40.546Z,62.55
2022-11-05T05:14:08.013Z,62.44
2022-11-05T05:16:34.386Z,62.47
2022-11-05T05:19:00.992Z,62.54
2022-11-05T05:21:39.995Z,62.58
2022-11-05T05:24:18.208Z,62.62
2022-11-05T05:26:47.575Z,62.39
2022-11-05T05:29:14.362Z,62.39
2022-11-05T05:31:41.192Z,62.36
2022-11-05T05:34:07.928Z,62.21
2022-11-05T05:36:34.475Z,61.98
2022-11-05T05:39:01.097Z,61.97
2022-11-05T05:41:27.635Z,61.87
2022-11-05T05:43:54.064Z,61.71
2022-11-05T05:46:20.597Z,61.74
2022-11-05T05:48:51.132Z,61.73
2022-11-05T05:51:18.019Z,61.43
2022-11-05T05:53:44.519Z,61.62
2022-11-05T05:56:14.416Z,61.89
2022-11-05T05:58:40.951Z,62.26
2022-11-05T06:01:17.184Z,62.04
2022-11-05T06:03:45.699Z,61.99
2022-11-05T06:06:14.584Z,62.10
2022-11-05T06:08:42.037Z,61.97
2022-11-05T06:11:08.707Z,61.70
2022-11-05T06:13:36.026Z,60.73
2022-11-05T06:16:07.271Z,60.82
2022-11-05T06:18:34.113Z,61.35
2022-11-05T06:21:04.167Z,60.39
2022-11-05T06:23:32.099Z,60.05
2022-11-05T06:26:00.886Z,60.36
2022-11-05T06:28:28.957Z,60.84
2022-11-05T06:30:56.682Z,61.17
2022-11-05T06:33:23.575Z,61.00
2022-11-05T06:35:50.093Z,60.78
2022-11-05T06:38:16.631Z,60.50
2022-11-05T06:40:43.063Z,60.12
2022-11-05T06:43:09.880Z,60.41
2022-11-05T06:45:36.539Z,60.45
2022-11-05T06:48:03.278Z,59.43
2022-11-05T06:50:29.669Z,59.90
2022-11-05T06:53:01.374Z,59.09
2022-11-05T06:55:29.129Z,63.25
2022-11-05T06:57:56.072Z,65.55
2022-11-05T07:00:23.124Z,64.24
2022-11-05T07:02:49.652Z,63.29
2022-11-05T07:05:16.393Z,62.45
2022-11-05T07:07:43.949Z,61.23
2022-11-05T07:10:13.487Z,61.26
2022-11-05T07:12:39.990Z,60.61
2022-11-05T07:15:07.342Z,59.34
2022-11-05T07:17:33.882Z,60.62
2022-11-05T07:20:00.310Z,63.76
2022-11-05T07:22:26.843Z,63.94
2022-11-05T07:24:53.274Z,62.74
2022-11-05T07:27:19.810Z,60.73
2022-11-05T07:29:46.347Z,60.29
2022-11-05T07:32:12.790Z,60.64
2022-11-05T07:34:39.210Z,60.50
2022-11-05T07:37:05.963Z,59.89
2022-11-05T07:39:32.399Z,58.85
2022-11-05T07:41:59.018Z,59.53
2022-11-05T07:44:30.673Z,61.80
2022-11-05T07:46:57.206Z,64.16
2022-11-05T07:49:23.843Z,64.01
2022-11-05T07:51:50.332Z,61.47
2022-11-05T07:54:16.862Z,59.76
2022-11-05T07:56:46.519Z,59.02
2022-11-05T07:59:13.154Z,61.90
2022-11-05T08:01:39.986Z,63.58
2022-11-05T08:04:06.744Z,63.45
2022-11-05T08:06:33.280Z,62.83
2022-11-05T08:08:59.928Z,62.32
2022-11-05T08:11:26.408Z,60.36
2022-11-05T08:13:52.841Z,60.48
2022-11-05T08:16:19.674Z,59.85
2022-11-05T08:18:46.403Z,59.56
2022-11-05T08:21:12.860Z,61.10
2022-11-05T08:23:39.424Z,63.34
2022-11-05T08:26:05.912Z,63.17
2022-11-05T08:28:32.452Z,61.62
2022-11-05T08:30:58.909Z,60.27
2022-11-05T08:33:25.354Z,59.43
2022-11-05T08:35:51.781Z,59.04
2022-11-05T08:38:18.806Z,59.60
2022-11-05T08:40:52.772Z,63.16
2022-11-05T08:43:19.193Z,65.31
2022-11-05T08:45:45.706Z,64.46
2022-11-05T08:48:14.386Z,63.53
2022-11-05T08:50:41.335Z,62.26
2022-11-05T08:53:08.165Z,61.32
2022-11-05T08:55:34.841Z,59.48
2022-11-05T08:58:04.181Z,59.02
2022-11-05T09:00:33.987Z,60.55
2022-11-05T09:03:05.523Z,61.82
2022-11-05T09:05:37.644Z,64.28
2022-11-05T09:08:07.947Z,64.08
2022-11-05T09:10:34.587Z,62.49
2022-11-05T09:13:01.284Z,61.19
2022-11-05T09:15:28.384Z,60.33
2022-11-05T09:17:55.071Z,58.59
2022-11-05T09:20:21.610Z,59.00
2022-11-05T09:22:48.097Z,61.01
2022-11-05T09:25:17.169Z,61.51
2022-11-05T09:27:43.832Z,65.23
2022-11-05T09:30:11.722Z,63.66
2022-11-05T09:32:38.136Z,61.16
2022-11-05T09:35:05.406Z,60.55
2022-11-05T09:37:31.870Z,59.17
2022-11-05T09:39:58.241Z,58.69
2022-11-05T09:42:29.954Z,60.45
2022-11-05T09:45:07.314Z,63.11
2022-11-05T09:47:40.594Z,64.06
2022-11-05T09:50:12.389Z,61.65
2022-11-05T09:52:38.962Z,59.83
2022-11-05T09:55:16.904Z,59.39
2022-11-05T09:57:56.554Z,57.49
2022-11-05T10:00:23.275Z,61.10
2022-11-05T10:02:55.172Z,61.46
2022-11-05T10:05:23.753Z,60.83
2022-11-05T10:08:04.684Z,60.14
2022-11-05T10:10:50.883Z,58.28
2022-11-05T10:13:45.516Z,60.09
2022-11-05T10:16:23.583Z,62.03
2022-11-05T10:18:58.588Z,63.86
2022-11-05T10:21:51.348Z,62.41
2022-11-05T10:24:18.534Z,60.66
2022-11-05T10:26:50.862Z,58.33
2022-11-05T10:29:32.140Z,58.54
2022-11-05T10:32:01.030Z,59.87
2022-11-05T10:34:34.015Z,61.29
2022-11-05T10:37:00.450Z,63.43
2022-11-05T10:39:34.258Z,64.35
2022-11-05T10:42:27.313Z,62.85
2022-11-05T10:45:18.385Z,60.80
2022-11-05T10:48:00.935Z,57.66
2022-11-05T10:50:28.997Z,57.43
2022-11-05T10:53:11.675Z,59.96
2022-11-05T10:55:45.842Z,62.13
2022-11-05T10:58:15.225Z,64.32
2022-11-05T11:00:51.134Z,64.60
2022-11-05T11:03:48.952Z,61.64
2022-11-05T11:06:23.542Z,61.38
2022-11-05T11:08:51.137Z,59.36
2022-11-05T11:11:35.374Z,58.71
2022-11-05T11:14:18.709Z,59.98
2022-11-05T11:16:57.115Z,61.84
2022-11-05T11:19:43.008Z,64.64
2022-11-05T11:22:15.783Z,66.11
2022-11-05T11:24:50.456Z,65.15
2022-11-05T11:27:29.467Z,61.95
2022-11-05T11:30:00.945Z,61.54
2022-11-05T11:32:34.802Z,60.67
2022-11-05T11:35:01.531Z,60.03
2022-11-05T11:37:30.223Z,59.89
2022-11-05T11:40:03.635Z,58.21
2022-11-05T11:42:33.218Z,58.12
2022-11-05T11:45:05.347Z,60.04
2022-11-05T11:47:31.883Z,60.91
2022-11-05T11:50:00.260Z,60.83
2022-11-05T11:52:32.714Z,64.62
2022-11-05T11:55:11.298Z,67.23
2022-11-05T11:57:52.251Z,65.57
2022-11-05T12:00:22.766Z,64.25
2022-11-05T12:03:08.716Z,64.45
2022-11-05T12:05:49.965Z,63.08
2022-11-05T12:08:45.835Z,62.96
2022-11-05T12:11:28.731Z,62.09
2022-11-05T12:13:59.693Z,60.55
2022-11-05T12:16:37.193Z,60.85
2022-11-05T12:19:23.875Z,60.40
2022-11-05T12:22:19.173Z,59.98
2022-11-05T12:25:09.643Z,58.96
2022-11-05T12:28:23.814Z,58.41
2022-11-05T12:31:04.730Z,60.18
2022-11-05T12:34:00.002Z,64.77
2022-11-05T12:36:48.851Z,66.03
2022-11-05T12:39:41.271Z,64.84
2022-11-05T12:42:27.877Z,62.92
2022-11-05T12:45:03.870Z,62.14
2022-11-05T12:47:58.424Z,62.38
2022-11-05T12:50:33.798Z,62.23
2022-11-05T12:53:23.125Z,61.32
2022-11-05T12:55:49.689Z,61.07
2022-11-05T12:58:23.786Z,61.01
2022-11-05T13:01:28.344Z,61.08
2022-11-05T13:03:58.330Z,61.00
2022-11-05T13:06:41.359Z,61.17
2022-11-05T13:09:25.380Z,60.61
2022-11-05T13:12:15.012Z,59.75
2022-11-05T13:15:09.037Z,60.02
2022-11-05T13:17:59.338Z,59.99
2022-11-05T13:20:32.795Z,60.01
2022-11-05T13:23:10.446Z,60.44
2022-11-05T13:25:41.568Z,59.98
2022-11-05T13:28:22.951Z,60.35
2022-11-05T13:30:55.684Z,60.04
2022-11-05T13:33:26.979Z,60.28
2022-11-05T13:36:26.481Z,60.47
2022-11-05T13:39:06.735Z,60.15
2022-11-05T13:42:11.163Z,60.49
2022-11-05T13:45:11.698Z,60.87
2022-11-05T13:47:49.734Z,60.72
2022-11-05T13:50:32.212Z,61.16
2022-11-05T13:53:27.001Z,60.83
2022-11-05T13:56:39.380Z,61.14
2022-11-05T13:59:27.447Z,61.29
2022-11-05T14:01:57.465Z,61.05
2022-11-05T14:04:44.633Z,61.18
2022-11-05T14:07:14.907Z,61.37
2022-11-05T14:09:41.848Z,61.40
2022-11-05T14:12:20.467Z,60.94
2022-11-05T14:14:51.332Z,60.87
2022-11-05T14:18:02.674Z,61.01
2022-11-05T14:20:35.088Z,61.00
2022-11-05T14:23:17.162Z,61.14
2022-11-05T14:25:43.707Z,61.22
2022-11-05T14:28:34.935Z,60.96
2022-11-05T14:31:41.147Z,60.66
2022-11-05T14:34:10.304Z,61.38
2022-11-05T14:36:43.107Z,61.35
2022-11-05T14:39:27.573Z,61.50
2022-11-05T14:42:29.412Z,61.85
2022-11-05T14:45:09.622Z,61.81
2022-11-05T14:47:40.076Z,61.22
2022-11-05T14:50:20.893Z,61.08
2022-11-05T14:52:56.367Z,61.28
2022-11-05T14:55:38.669Z,61.24
2022-11-05T14:58:32.601Z,60.79
2022-11-05T15:00:59.984Z,60.33
2022-11-05T15:03:42.583Z,60.44
2022-11-05T15:06:27.652Z,60.51
2022-11-05T15:09:07.889Z,60.60
2022-11-05T15:12:03.851Z,60.92
2022-11-05T15:14:34.480Z,61.06
2022-11-05T15:17:16.929Z,61.16
2022-11-05T15:19:43.421Z,61.41
2022-11-05T15:22:17.258Z,61.49
2022-11-05T15:24:43.665Z,61.50
2022-11-05T15:27:22.506Z,61.84
2022-11-05T15:29:48.889Z,62.00
2022-11-05T15:32:16.986Z,62.03
2022-11-05T15:34:51.889Z,61.90
2022-11-05T15:37:24.391Z,61.75
2022-11-05T15:39:53.186Z,61.68
2022-11-05T15:42:22.648Z,61.69
2022-11-05T15:44:56.980Z,61.60
2022-11-05T15:47:30.817Z,61.41
2022-11-05T15:50:01.427Z,61.40
2022-11-05T15:52:41.696Z,61.44
2022-11-05T15:55:11.144Z,61.45
2022-11-05T15:57:40.301Z,61.20
2022-11-05T16:00:24.614Z,61.08
2022-11-05T16:02:56.868Z,61.10
2022-11-05T16:05:28.599Z,61.25
2022-11-05T16:07:58.279Z,61.33
2022-11-05T16:10:32.058Z,61.39
2022-11-05T16:13:37.220Z,61.39
2022-11-05T16:16:32.037Z,61.43
2022-11-05T16:18:58.551Z,61.65
2022-11-05T16:21:25.082Z,61.64
2022-11-05T16:23:57.497Z,61.56
2022-11-05T16:27:00.742Z,61.46
2022-11-05T16:29:27.800Z,61.53
2022-11-05T16:31:55.357Z,61.44
2022-11-05T16:34:46.877Z,61.44
2022-11-05T16:37:18.598Z,61.33
2022-11-05T16:39:45.075Z,61.26
2022-11-05T16:42:26.863Z,61.22
2022-11-05T16:44:54.530Z,61.15
2022-11-05T16:47:21.603Z,61.00
2022-11-05T16:49:48.306Z,60.87
2022-11-05T16:52:15.398Z,60.95
2022-11-05T16:54:42.093Z,61.08
2022-11-05T16:57:18.918Z,61.15
2022-11-05T16:59:45.350Z,61.16
2022-11-05T17:02:12.005Z,61.02
2022-11-05T17:04:38.503Z,61.07
2022-11-05T17:07:05.019Z,61.07
2022-11-05T17:09:31.520Z,61.05
2022-11-05T17:12:00.190Z,61.23
2022-11-05T17:14:26.580Z,61.37
2022-11-05T17:16:53.801Z,61.29
2022-11-05T17:19:20.450Z,61.42
2022-11-05T17:21:46.973Z,61.23
2022-11-05T17:24:13.469Z,61.22
2022-11-05T17:26:40.163Z,61.26
2022-11-05T17:29:06.651Z,61.33
2022-11-05T17:31:33.077Z,61.38
2022-11-05T17:33:59.544Z,61.45
2022-11-05T17:36:26.022Z,61.81
2022-11-05T17:38:52.625Z,62.15
2022-11-05T17:41:21.699Z,62.47
2022-11-05T17:43:52.335Z,62.59
2022-11-05T17:46:19.311Z,62.35
2022-11-05T17:48:46.234Z,61.93
2022-11-05T17:51:14.703Z,61.85
2022-11-05T17:53:41.642Z,61.82
2022-11-05T17:56:09.704Z,61.59
2022-11-05T17:58:36.209Z,61.37
2022-11-05T18:01:03.605Z,61.17
2022-11-05T18:03:30.141Z,60.97
2022-11-05T18:06:03.471Z,60.81
2022-11-05T18:08:30.018Z,60.62
2022-11-05T18:10:56.556Z,60.47
2022-11-05T18:13:23.075Z,60.42
2022-11-05T18:15:51.419Z,60.28
2022-11-05T18:18:17.926Z,60.26
2022-11-05T18:20:44.439Z,60.08
2022-11-05T18:23:11.484Z,59.82
2022-11-05T18:25:40.425Z,59.95
2022-11-05T18:28:07.175Z,60.31
2022-11-05T18:30:36.081Z,60.25
2022-11-05T18:33:02.690Z,60.12
2022-11-05T18:35:29.062Z,59.97
2022-11-05T18:37:55.518Z,59.78
2022-11-05T18:40:21.997Z,59.64
2022-11-05T18:42:48.375Z,59.46
2022-11-05T18:45:14.860Z,57.71
2022-11-05T18:47:41.381Z,57.78
2022-11-05T18:50:08.804Z,59.41
2022-11-05T18:52:35.368Z,61.41
2022-11-05T18:55:01.858Z,64.96
2022-11-05T18:57:28.350Z,68.65
2022-11-05T18:59:54.777Z,68.06
2022-11-05T19:02:21.761Z,67.09
2022-11-05T19:05:13.927Z,66.40
2022-11-05T19:07:36.664Z,65.72
2022-11-05T19:10:03.786Z,65.56
2022-11-05T19:12:30.348Z,65.21
2022-11-05T19:15:02.124Z,65.02
2022-11-05T19:17:30.231Z,64.27
2022-11-05T19:19:56.820Z,63.91
2022-11-05T19:22:25.710Z,63.69
2022-11-05T19:24:52.323Z,63.57
2022-11-05T19:27:18.702Z,63.61
2022-11-05T19:29:46.397Z,63.61
2022-11-05T19:32:12.802Z,63.53
2022-11-05T19:34:39.262Z,63.54
2022-11-05T19:37:08.404Z,63.63
2022-11-05T19:39:35.359Z,63.38
2022-11-05T19:42:03.956Z,63.02
2022-11-05T19:44:31.222Z,62.66
2022-11-05T19:46:57.926Z,62.44
2022-11-05T19:49:24.548Z,62.12
2022-11-05T19:51:51.249Z,62.20
2022-11-05T19:54:17.810Z,62.22
2022-11-05T19:56:45.094Z,62.09
2022-11-05T19:59:12.937Z,61.98
2022-11-05T20:01:39.498Z,61.89
2022-11-05T20:04:08.070Z,61.89
2022-11-05T20:06:38.153Z,61.98
2022-11-05T20:09:21.092Z,61.75
2022-11-05T20:11:53.578Z,61.67
2022-11-05T20:14:20.105Z,61.78
2022-11-05T20:16:46.638Z,61.82
2022-11-05T20:19:14.372Z,61.61
2022-11-05T20:21:41.236Z,61.53
2022-11-05T20:24:08.010Z,61.51
2022-11-05T20:26:34.811Z,61.45
2022-11-05T20:29:02.898Z,61.45
2022-11-05T20:31:29.875Z,61.52
2022-11-05T20:33:56.415Z,61.47
2022-11-05T20:36:24.000Z,61.59
2022-11-05T20:38:52.455Z,61.69
2022-11-05T20:41:19.174Z,61.67
2022-11-05T20:43:46.307Z,61.33
2022-11-05T20:46:15.732Z,61.23
2022-11-05T20:48:42.715Z,61.25
2022-11-05T20:51:13.183Z,61.44
2022-11-05T20:53:39.876Z,61.65
2022-11-05T20:56:08.719Z,61.58
2022-11-05T20:58:36.603Z,61.64
2022-11-05T21:01:04.628Z,61.65
2022-11-05T21:03:31.396Z,61.66
2022-11-05T21:05:59.273Z,61.55
2022-11-05T21:08:27.017Z,61.65
2022-11-05T21:10:54.227Z,61.63
2022-11-05T21:13:21.651Z,61.89
2022-11-05T21:15:52.773Z,62.19
2022-11-05T21:18:22.209Z,62.17
2022-11-05T21:20:48.713Z,62.53
2022-11-05T21:23:15.271Z,62.49
2022-11-05T21:25:42.096Z,62.27
2022-11-05T21:28:11.098Z,61.92
2022-11-05T21:30:41.314Z,61.60
2022-11-05T21:33:08.240Z,61.23
2022-11-05T21:35:39.968Z,61.32
2022-11-05T21:38:06.744Z,61.46
2022-11-05T21:40:33.217Z,61.65
2022-11-05T21:42:59.602Z,61.86
2022-11-05T21:45:26.147Z,61.97
2022-11-05T21:47:52.523Z,62.11
2022-11-05T21:50:21.956Z,62.19
2022-11-05T21:53:07.162Z,62.31
2022-11-05T21:55:52.135Z,62.27
2022-11-05T21:58:37.349Z,62.13
2022-11-05T22:01:03.994Z,61.86
2022-11-05T22:03:30.389Z,61.67
2022-11-05T22:05:56.846Z,61.40
2022-11-05T22:08:23.293Z,61.15
2022-11-05T22:10:49.716Z,60.92
2022-11-05T22:13:16.207Z,61.09
2022-11-05T22:15:42.600Z,61.03
2022-11-05T22:18:10.891Z,60.93
2022-11-05T22:20:38.565Z,60.64
2022-11-05T22:23:10.052Z,60.67
2022-11-05T22:25:37.783Z,60.93
2022-11-05T22:28:04.208Z,60.90
2022-11-05T22:30:34.046Z,60.72
2022-11-05T22:33:00.692Z,60.79
2022-11-05T22:35:27.081Z,60.85
2022-11-05T22:37:53.921Z,61.10
2022-11-05T22:40:23.701Z,61.35
2022-11-05T22:42:50.929Z,61.48
2022-11-05T22:45:17.800Z,61.62
2022-11-05T22:47:44.170Z,61.41
2022-11-05T22:50:10.659Z,61.71
2022-11-05T22:52:36.990Z,62.22
2022-11-05T22:55:05.646Z,62.52
2022-11-05T22:57:32.203Z,62.39
2022-11-05T22:59:59.980Z,62.26
2022-11-05T23:02:26.592Z,62.13
2022-11-05T23:04:53.169Z,62.28
2022-11-05T23:07:47.664Z,62.28
2022-11-05T23:10:32.521Z,61.93
2022-11-05T23:12:59.966Z,61.76
2022-11-05T23:15:44.946Z,61.88
2022-11-05T23:18:30.103Z,62.05
2022-11-05T23:21:17.959Z,62.52
2022-11-05T23:24:03.775Z,62.69
2022-11-05T23:26:50.263Z,62.53
2022-11-05T23:29:23.532Z,62.40
2022-11-05T23:32:09.818Z,62.36
2022-11-05T23:34:36.583Z,62.77
2022-11-05T23:37:21.978Z,63.13
2022-11-05T23:39:49.610Z,62.82
2022-11-05T23:42:35.491Z,62.73
2022-11-05T23:45:21.449Z,62.82
2022-11-05T23:48:06.371Z,63.50
2022-11-05T23:50:37.182Z,63.55
2022-11-05T23:53:06.574Z,64.34
2022-11-05T23:55:33.220Z,64.38
2022-11-05T23:57:59.807Z,64.29
